Aéroport int. de Vancouver, Colombie-Britannique

Conditions des dernières 24 heures

Date / Heure
(HAP)
Conditions Temp
(°F)
Humidité
(%)
Point de rosée
(°F)
Vent
(mph)
Pression (pouces) Vis
(mi)
Humidex
29 août 2015
9:00 Généralement nuageux 62 91 60 E 22 rafale 28 29.5 15 *
8:00 Pluie faible 61 94 60 E 23 29.5 7 *
7:00 Pluie 62 92 60 OSO 9 29.5 3 *
6:00 Pluie faible 63 85 59 ENE 9 rafale 19 29.4 15 *
5:00 Pluie faible 64 80 58 NE 12 29.5 12 *
4:00 Pluie faible 64 81 58 NE 10 29.6 12 *
3:00 Pluie faible 64 83 59 E 7 29.6 15 *
2:00 Généralement nuageux 63 84 58 E 9 29.6 15 *
1:00 Généralement nuageux 65 76 57 E 9 29.7 15 *
0:00 Généralement nuageux 65 76 57 NE 13 29.7 15 *
28 août 2015
23:00 Généralement nuageux 65 77 58 ENE 8 29.8 20 *
22:00 Généralement nuageux 66 73 57 ENE 11 29.8 20 *
21:00 Généralement nuageux 67 71 57 ENE 8 29.8 20 *
20:00 Généralement nuageux 68 68 57 NE 8 29.8 20 74
19:00 Généralement nuageux 69 66 57 ESE 8 29.8 20 74
18:00 Généralement nuageux 70   58 55 E 8 29.9 20 74
17:00 Généralement nuageux 70   62 56 ESE 8 29.9 20 75
16:00 Généralement nuageux 70   62 57 ESE 6 29.9 15 76
15:00 Généralement nuageux 69 68 58 SE 6 29.9 15 76
14:00 Généralement nuageux 68 76 60 E 7 29.9 15 76
13:00 Généralement nuageux 66 82 60 ENE 7 29.9 15 *
12:00 Généralement nuageux 64 85 59 SE 10 29.9 12 *
11:00 Généralement nuageux 62 86 58 SE 8 29.9 10 *
10:00 Généralement nuageux 62 91 59 ESE 9 29.9 8 *
9:00 Pluie faible 60   95 58 ESE 10 29.9 4 *
N.D. non disponible
↑ température la plus haute
↓ température la plus basse
* Valeur non significative.

Si vous désirez plus de données historiques sur les conditions météo, s.v.p. visitez Données climatologiques en ligne.

Ce que nous faisons

Date de modification :